sensor_id;sensor_type;location;lat;lon;timestamp;P1;durP1;ratioP1;P2;durP2;ratioP2
34896;SDS011;43407;51.828;-2.298;2022-10-31T00:01:02;13.68;;;3.30;;
34896;SDS011;43407;51.828;-2.298;2022-10-31T00:03:27;13.68;;;2.90;;
34896;SDS011;43407;51.828;-2.298;2022-10-31T00:05:55;9.38;;;2.60;;
34896;SDS011;43407;51.828;-2.298;2022-10-31T00:08:23;11.73;;;3.17;;
34896;SDS011;43407;51.828;-2.298;2022-10-31T00:10:49;17.15;;;3.30;;
34896;SDS011;43407;51.828;-2.298;2022-10-31T00:13:14;14.88;;;2.90;;
34896;SDS011;43407;51.828;-2.298;2022-10-31T00:15:40;18.35;;;3.70;;
34896;SDS011;43407;51.828;-2.298;2022-10-31T00:18:06;12.70;;;2.88;;
34896;SDS011;43407;51.828;-2.298;2022-10-31T00:20:35;16.73;;;3.15;;
34896;SDS011;43407;51.828;-2.298;2022-10-31T00:23:01;27.60;;;3.60;;
34896;SDS011;43407;51.828;-2.298;2022-10-31T00:25:28;22.60;;;3.17;;
34896;SDS011;43407;51.828;-2.298;2022-10-31T00:27:57;15.77;;;3.03;;
34896;SDS011;43407;51.828;-2.298;2022-10-31T00:30:23;12.35;;;2.67;;
34896;SDS011;43407;51.828;-2.298;2022-10-31T00:32:48;10.25;;;3.03;;
34896;SDS011;43407;51.828;-2.298;2022-10-31T00:35:14;15.05;;;2.90;;
34896;SDS011;43407;51.828;-2.298;2022-10-31T00:37:40;14.35;;;3.22;;
34896;SDS011;43407;51.828;-2.298;2022-10-31T00:40:08;13.05;;;2.75;;
34896;SDS011;43407;51.828;-2.298;2022-10-31T00:43:00;12.80;;;2.67;;
34896;SDS011;43407;51.828;-2.298;2022-10-31T00:45:33;14.10;;;2.90;;
34896;SDS011;43407;51.828;-2.298;2022-10-31T00:48:01;13.32;;;2.70;;
34896;SDS011;43407;51.828;-2.298;2022-10-31T00:50:37;13.85;;;2.47;;
34896;SDS011;43407;51.828;-2.298;2022-10-31T00:55:46;15.43;;;2.97;;
34896;SDS011;43407;51.828;-2.298;2022-10-31T00:58:12;14.95;;;3.58;;
34896;SDS011;43407;51.828;-2.298;2022-10-31T01:00:40;16.20;;;2.63;;
34896;SDS011;43407;51.828;-2.298;2022-10-31T01:03:10;14.40;;;3.03;;
34896;SDS011;43407;51.828;-2.298;2022-10-31T01:05:38;16.30;;;3.17;;
34896;SDS011;43407;51.828;-2.298;2022-10-31T01:08:06;17.70;;;3.75;;
34896;SDS011;43407;51.828;-2.298;2022-10-31T01:10:32;18.58;;;3.03;;
34896;SDS011;43407;51.828;-2.298;2022-10-31T01:13:20;20.20;;;3.53;;
34896;SDS011;43407;51.828;-2.298;2022-10-31T01:15:46;13.40;;;2.63;;
34896;SDS011;43407;51.828;-2.298;2022-10-31T01:18:26;14.37;;;2.90;;
34896;SDS011;43407;51.828;-2.298;2022-10-31T01:21:12;20.42;;;3.38;;
34896;SDS011;43407;51.828;-2.298;2022-10-31T01:23:47;16.75;;;3.05;;
34896;SDS011;43407;51.828;-2.298;2022-10-31T01:26:42;30.08;;;3.58;;
34896;SDS011;43407;51.828;-2.298;2022-10-31T01:29:11;10.77;;;2.63;;
34896;SDS011;43407;51.828;-2.298;2022-10-31T01:31:39;13.80;;;2.75;;
34896;SDS011;43407;51.828;-2.298;2022-10-31T01:34:09;14.35;;;2.70;;
34896;SDS011;43407;51.828;-2.298;2022-10-31T01:36:38;11.82;;;2.50;;
34896;SDS011;43407;51.828;-2.298;2022-10-31T01:39:14;18.02;;;3.28;;
34896;SDS011;43407;51.828;-2.298;2022-10-31T01:41:41;13.52;;;2.70;;
34896;SDS011;43407;51.828;-2.298;2022-10-31T01:49:18;20.85;;;3.67;;
34896;SDS011;43407;51.828;-2.298;2022-10-31T01:57:37;18.58;;;2.90;;
34896;SDS011;43407;51.828;-2.298;2022-10-31T02:00:07;14.57;;;2.90;;
34896;SDS011;43407;51.828;-2.298;2022-10-31T02:02:33;15.60;;;2.65;;
34896;SDS011;43407;51.828;-2.298;2022-10-31T02:04:59;12.15;;;3.03;;
34896;SDS011;43407;51.828;-2.298;2022-10-31T02:07:31;11.63;;;2.25;;
34896;SDS011;43407;51.828;-2.298;2022-10-31T02:10:02;17.40;;;2.70;;
34896;SDS011;43407;51.828;-2.298;2022-10-31T02:12:48;17.92;;;2.53;;
34896;SDS011;43407;51.828;-2.298;2022-10-31T02:15:21;14.95;;;2.78;;
34896;SDS011;43407;51.828;-2.298;2022-10-31T02:17:47;10.32;;;2.30;;
34896;SDS011;43407;51.828;-2.298;2022-10-31T02:20:19;13.20;;;2.35;;
34896;SDS011;43407;51.828;-2.298;2022-10-31T02:22:52;14.77;;;2.70;;
34896;SDS011;43407;51.828;-2.298;2022-10-31T02:28:24;17.60;;;2.47;;
34896;SDS011;43407;51.828;-2.298;2022-10-31T02:36:27;11.00;;;2.08;;
34896;SDS011;43407;51.828;-2.298;2022-10-31T02:44:41;6.72;;;1.80;;
34896;SDS011;43407;51.828;-2.298;2022-10-31T02:47:16;9.55;;;2.10;;
34896;SDS011;43407;51.828;-2.298;2022-10-31T02:52:26;12.57;;;2.80;;
34896;SDS011;43407;51.828;-2.298;2022-10-31T02:57:25;10.43;;;2.33;;
34896;SDS011;43407;51.828;-2.298;2022-10-31T02:59:57;14.88;;;2.85;;
34896;SDS011;43407;51.828;-2.298;2022-10-31T03:12:43;10.63;;;2.33;;
34896;SDS011;43407;51.828;-2.298;2022-10-31T03:17:56;10.30;;;2.50;;
34896;SDS011;43407;51.828;-2.298;2022-10-31T03:20:36;11.63;;;2.58;;
34896;SDS011;43407;51.828;-2.298;2022-10-31T03:23:06;6.50;;;1.80;;
34896;SDS011;43407;51.828;-2.298;2022-10-31T03:25:36;4.45;;;1.52;;
34896;SDS011;43407;51.828;-2.298;2022-10-31T03:28:03;6.35;;;1.65;;
34896;SDS011;43407;51.828;-2.298;2022-10-31T03:30:35;9.90;;;2.30;;
34896;SDS011;43407;51.828;-2.298;2022-10-31T03:33:03;12.63;;;2.05;;
34896;SDS011;43407;51.828;-2.298;2022-10-31T03:35:34;10.95;;;2.05;;
34896;SDS011;43407;51.828;-2.298;2022-10-31T03:38:06;12.00;;;2.30;;
34896;SDS011;43407;51.828;-2.298;2022-10-31T03:40:32;7.80;;;1.67;;
34896;SDS011;43407;51.828;-2.298;2022-10-31T03:43:00;6.30;;;1.38;;
34896;SDS011;43407;51.828;-2.298;2022-10-31T03:45:32;10.15;;;1.77;;
34896;SDS011;43407;51.828;-2.298;2022-10-31T03:47:58;9.98;;;1.80;;
34896;SDS011;43407;51.828;-2.298;2022-10-31T03:50:29;15.52;;;2.60;;
34896;SDS011;43407;51.828;-2.298;2022-10-31T03:53:07;10.43;;;1.95;;
34896;SDS011;43407;51.828;-2.298;2022-10-31T03:55:39;12.55;;;2.17;;
34896;SDS011;43407;51.828;-2.298;2022-10-31T03:58:10;13.20;;;2.22;;
34896;SDS011;43407;51.828;-2.298;2022-10-31T04:00:52;10.55;;;1.88;;
34896;SDS011;43407;51.828;-2.298;2022-10-31T04:03:27;17.95;;;2.40;;
34896;SDS011;43407;51.828;-2.298;2022-10-31T04:05:56;12.35;;;2.03;;
34896;SDS011;43407;51.828;-2.298;2022-10-31T04:08:24;19.17;;;2.40;;
34896;SDS011;43407;51.828;-2.298;2022-10-31T04:10:55;11.82;;;2.28;;
34896;SDS011;43407;51.828;-2.298;2022-10-31T04:13:41;12.80;;;2.20;;
34896;SDS011;43407;51.828;-2.298;2022-10-31T04:16:11;20.85;;;3.15;;
34896;SDS011;43407;51.828;-2.298;2022-10-31T04:18:39;18.48;;;2.90;;
34896;SDS011;43407;51.828;-2.298;2022-10-31T04:21:06;13.20;;;2.08;;
34896;SDS011;43407;51.828;-2.298;2022-10-31T04:23:33;11.88;;;2.05;;
34896;SDS011;43407;51.828;-2.298;2022-10-31T04:25:59;14.18;;;2.58;;
34896;SDS011;43407;51.828;-2.298;2022-10-31T04:28:24;10.02;;;1.83;;
34896;SDS011;43407;51.828;-2.298;2022-10-31T04:30:50;13.68;;;2.33;;
34896;SDS011;43407;51.828;-2.298;2022-10-31T04:33:16;12.98;;;2.65;;
34896;SDS011;43407;51.828;-2.298;2022-10-31T04:35:45;12.40;;;2.58;;
34896;SDS011;43407;51.828;-2.298;2022-10-31T04:38:10;13.77;;;2.10;;
34896;SDS011;43407;51.828;-2.298;2022-10-31T04:40:39;11.63;;;2.15;;
34896;SDS011;43407;51.828;-2.298;2022-10-31T04:43:06;14.52;;;2.42;;
34896;SDS011;43407;51.828;-2.298;2022-10-31T04:45:32;12.85;;;2.60;;
34896;SDS011;43407;51.828;-2.298;2022-10-31T04:48:08;11.52;;;2.20;;
34896;SDS011;43407;51.828;-2.298;2022-10-31T04:50:36;13.50;;;2.73;;
34896;SDS011;43407;51.828;-2.298;2022-10-31T04:53:03;14.05;;;2.25;;
34896;SDS011;43407;51.828;-2.298;2022-10-31T04:55:29;13.10;;;2.30;;
34896;SDS011;43407;51.828;-2.298;2022-10-31T04:57:55;13.07;;;2.30;;
34896;SDS011;43407;51.828;-2.298;2022-10-31T05:00:25;18.67;;;2.80;;
34896;SDS011;43407;51.828;-2.298;2022-10-31T05:02:55;13.93;;;2.58;;
34896;SDS011;43407;51.828;-2.298;2022-10-31T05:05:22;9.57;;;2.10;;
34896;SDS011;43407;51.828;-2.298;2022-10-31T05:07:49;25.63;;;3.58;;
34896;SDS011;43407;51.828;-2.298;2022-10-31T05:10:18;9.20;;;2.20;;
34896;SDS011;43407;51.828;-2.298;2022-10-31T05:12:46;16.98;;;2.58;;
34896;SDS011;43407;51.828;-2.298;2022-10-31T05:15:13;11.45;;;2.33;;
34896;SDS011;43407;51.828;-2.298;2022-10-31T05:17:44;16.77;;;2.70;;
34896;SDS011;43407;51.828;-2.298;2022-10-31T05:20:14;13.45;;;2.78;;
34896;SDS011;43407;51.828;-2.298;2022-10-31T05:22:42;16.52;;;2.72;;
34896;SDS011;43407;51.828;-2.298;2022-10-31T05:25:08;16.13;;;2.20;;
34896;SDS011;43407;51.828;-2.298;2022-10-31T05:27:45;7.82;;;2.15;;
34896;SDS011;43407;51.828;-2.298;2022-10-31T05:30:16;13.23;;;2.22;;
34896;SDS011;43407;51.828;-2.298;2022-10-31T05:32:47;16.55;;;2.50;;
34896;SDS011;43407;51.828;-2.298;2022-10-31T05:35:18;18.65;;;2.90;;
34896;SDS011;43407;51.828;-2.298;2022-10-31T05:37:50;12.02;;;2.90;;
34896;SDS011;43407;51.828;-2.298;2022-10-31T05:40:16;18.02;;;2.60;;
34896;SDS011;43407;51.828;-2.298;2022-10-31T05:42:43;13.48;;;2.40;;
34896;SDS011;43407;51.828;-2.298;2022-10-31T05:45:10;14.13;;;2.17;;
34896;SDS011;43407;51.828;-2.298;2022-10-31T05:47:37;9.02;;;2.13;;
34896;SDS011;43407;51.828;-2.298;2022-10-31T05:50:03;17.17;;;3.03;;
34896;SDS011;43407;51.828;-2.298;2022-10-31T05:52:32;9.20;;;1.80;;
34896;SDS011;43407;51.828;-2.298;2022-10-31T05:55:01;13.23;;;2.55;;
34896;SDS011;43407;51.828;-2.298;2022-10-31T05:57:26;10.30;;;2.20;;
34896;SDS011;43407;51.828;-2.298;2022-10-31T05:59:53;14.55;;;2.72;;
34896;SDS011;43407;51.828;-2.298;2022-10-31T06:02:21;12.23;;;2.00;;
34896;SDS011;43407;51.828;-2.298;2022-10-31T06:04:49;10.88;;;2.40;;
34896;SDS011;43407;51.828;-2.298;2022-10-31T06:07:15;11.52;;;2.00;;
34896;SDS011;43407;51.828;-2.298;2022-10-31T06:09:40;13.75;;;2.45;;
34896;SDS011;43407;51.828;-2.298;2022-10-31T06:12:09;8.75;;;2.40;;
34896;SDS011;43407;51.828;-2.298;2022-10-31T06:14:34;20.60;;;2.75;;
34896;SDS011;43407;51.828;-2.298;2022-10-31T06:17:02;16.75;;;2.67;;
34896;SDS011;43407;51.828;-2.298;2022-10-31T06:19:30;12.70;;;2.30;;
34896;SDS011;43407;51.828;-2.298;2022-10-31T06:21:55;14.77;;;2.28;;
34896;SDS011;43407;51.828;-2.298;2022-10-31T06:24:21;8.82;;;2.03;;
34896;SDS011;43407;51.828;-2.298;2022-10-31T06:26:49;11.43;;;2.13;;
34896;SDS011;43407;51.828;-2.298;2022-10-31T06:29:14;10.93;;;2.40;;
34896;SDS011;43407;51.828;-2.298;2022-10-31T06:31:40;8.43;;;2.22;;
34896;SDS011;43407;51.828;-2.298;2022-10-31T06:34:08;16.92;;;2.83;;
34896;SDS011;43407;51.828;-2.298;2022-10-31T06:36:33;12.85;;;2.38;;
34896;SDS011;43407;51.828;-2.298;2022-10-31T06:38:59;13.00;;;2.50;;
34896;SDS011;43407;51.828;-2.298;2022-10-31T06:41:25;13.45;;;2.90;;
34896;SDS011;43407;51.828;-2.298;2022-10-31T06:43:53;8.38;;;2.10;;
34896;SDS011;43407;51.828;-2.298;2022-10-31T06:46:18;13.52;;;2.75;;
34896;SDS011;43407;51.828;-2.298;2022-10-31T06:48:44;8.07;;;2.25;;
34896;SDS011;43407;51.828;-2.298;2022-10-31T06:51:12;10.10;;;2.38;;
34896;SDS011;43407;51.828;-2.298;2022-10-31T06:53:37;8.60;;;2.45;;
34896;SDS011;43407;51.828;-2.298;2022-10-31T06:56:06;9.32;;;2.30;;
34896;SDS011;43407;51.828;-2.298;2022-10-31T06:58:31;9.35;;;2.20;;
34896;SDS011;43407;51.828;-2.298;2022-10-31T07:00:59;15.13;;;2.45;;
34896;SDS011;43407;51.828;-2.298;2022-10-31T07:03:25;10.07;;;2.33;;
34896;SDS011;43407;51.828;-2.298;2022-10-31T07:05:58;8.85;;;1.77;;
34896;SDS011;43407;51.828;-2.298;2022-10-31T07:08:29;9.60;;;1.85;;
34896;SDS011;43407;51.828;-2.298;2022-10-31T07:10:57;13.88;;;2.50;;
34896;SDS011;43407;51.828;-2.298;2022-10-31T07:13:25;12.45;;;2.65;;
34896;SDS011;43407;51.828;-2.298;2022-10-31T07:15:51;12.73;;;2.60;;
34896;SDS011;43407;51.828;-2.298;2022-10-31T07:18:18;12.63;;;2.25;;
34896;SDS011;43407;51.828;-2.298;2022-10-31T07:20:44;8.25;;;1.98;;
34896;SDS011;43407;51.828;-2.298;2022-10-31T07:23:12;9.70;;;2.22;;
34896;SDS011;43407;51.828;-2.298;2022-10-31T07:25:48;9.40;;;2.10;;
34896;SDS011;43407;51.828;-2.298;2022-10-31T07:28:19;6.97;;;1.98;;
34896;SDS011;43407;51.828;-2.298;2022-10-31T07:30:48;13.52;;;2.00;;
34896;SDS011;43407;51.828;-2.298;2022-10-31T07:33:17;6.95;;;1.95;;
34896;SDS011;43407;51.828;-2.298;2022-10-31T07:35:52;7.10;;;1.77;;
34896;SDS011;43407;51.828;-2.298;2022-10-31T07:38:20;7.15;;;1.65;;
34896;SDS011;43407;51.828;-2.298;2022-10-31T07:40:49;8.27;;;1.90;;
34896;SDS011;43407;51.828;-2.298;2022-10-31T07:43:20;10.82;;;2.00;;
34896;SDS011;43407;51.828;-2.298;2022-10-31T07:45:52;10.05;;;1.95;;
34896;SDS011;43407;51.828;-2.298;2022-10-31T07:48:18;6.68;;;1.40;;
34896;SDS011;43407;51.828;-2.298;2022-10-31T07:50:46;11.85;;;2.35;;
34896;SDS011;43407;51.828;-2.298;2022-10-31T07:53:14;12.00;;;1.90;;
34896;SDS011;43407;51.828;-2.298;2022-10-31T07:55:43;15.70;;;2.40;;
34896;SDS011;43407;51.828;-2.298;2022-10-31T07:58:10;8.32;;;1.60;;
34896;SDS011;43407;51.828;-2.298;2022-10-31T08:00:41;14.45;;;2.90;;
34896;SDS011;43407;51.828;-2.298;2022-10-31T08:03:08;10.07;;;1.95;;
34896;SDS011;43407;51.828;-2.298;2022-10-31T08:05:37;6.90;;;1.63;;
34896;SDS011;43407;51.828;-2.298;2022-10-31T08:08:05;10.77;;;1.85;;
34896;SDS011;43407;51.828;-2.298;2022-10-31T08:10:31;10.98;;;2.38;;
34896;SDS011;43407;51.828;-2.298;2022-10-31T08:12:58;13.88;;;2.35;;
34896;SDS011;43407;51.828;-2.298;2022-10-31T08:15:27;11.90;;;2.33;;
34896;SDS011;43407;51.828;-2.298;2022-10-31T08:17:54;9.88;;;2.47;;
34896;SDS011;43407;51.828;-2.298;2022-10-31T08:20:23;17.75;;;2.42;;
34896;SDS011;43407;51.828;-2.298;2022-10-31T08:25:43;13.93;;;2.67;;
34896;SDS011;43407;51.828;-2.298;2022-10-31T08:28:16;14.25;;;2.45;;
34896;SDS011;43407;51.828;-2.298;2022-10-31T08:30:41;13.50;;;2.60;;
34896;SDS011;43407;51.828;-2.298;2022-10-31T08:33:15;12.57;;;2.28;;
34896;SDS011;43407;51.828;-2.298;2022-10-31T08:35:44;15.43;;;2.30;;
34896;SDS011;43407;51.828;-2.298;2022-10-31T08:38:13;10.25;;;2.13;;
34896;SDS011;43407;51.828;-2.298;2022-10-31T08:40:41;14.60;;;2.72;;
34896;SDS011;43407;51.828;-2.298;2022-10-31T08:43:16;12.15;;;2.30;;
34896;SDS011;43407;51.828;-2.298;2022-10-31T08:45:47;16.70;;;2.65;;
34896;SDS011;43407;51.828;-2.298;2022-10-31T08:48:21;10.13;;;2.05;;
34896;SDS011;43407;51.828;-2.298;2022-10-31T08:50:49;8.00;;;2.13;;
34896;SDS011;43407;51.828;-2.298;2022-10-31T08:53:18;11.52;;;2.58;;
34896;SDS011;43407;51.828;-2.298;2022-10-31T08:55:44;11.07;;;2.13;;
34896;SDS011;43407;51.828;-2.298;2022-10-31T08:58:15;14.50;;;2.40;;
34896;SDS011;43407;51.828;-2.298;2022-10-31T09:00:42;7.93;;;2.00;;
34896;SDS011;43407;51.828;-2.298;2022-10-31T09:03:12;9.38;;;2.00;;
34896;SDS011;43407;51.828;-2.298;2022-10-31T09:05:41;10.18;;;2.13;;
34896;SDS011;43407;51.828;-2.298;2022-10-31T09:08:07;9.68;;;2.05;;
34896;SDS011;43407;51.828;-2.298;2022-10-31T09:10:34;12.55;;;2.40;;
34896;SDS011;43407;51.828;-2.298;2022-10-31T09:13:05;12.75;;;1.95;;
34896;SDS011;43407;51.828;-2.298;2022-10-31T09:15:42;6.75;;;1.95;;
34896;SDS011;43407;51.828;-2.298;2022-10-31T09:18:09;6.57;;;1.80;;
34896;SDS011;43407;51.828;-2.298;2022-10-31T09:20:40;10.43;;;2.20;;
34896;SDS011;43407;51.828;-2.298;2022-10-31T09:23:11;11.35;;;2.25;;
34896;SDS011;43407;51.828;-2.298;2022-10-31T09:25:37;7.40;;;2.30;;
34896;SDS011;43407;51.828;-2.298;2022-10-31T09:28:09;7.57;;;1.90;;
34896;SDS011;43407;51.828;-2.298;2022-10-31T09:30:36;10.27;;;2.38;;
34896;SDS011;43407;51.828;-2.298;2022-10-31T09:33:02;9.52;;;2.13;;
34896;SDS011;43407;51.828;-2.298;2022-10-31T09:35:33;13.30;;;2.28;;
34896;SDS011;43407;51.828;-2.298;2022-10-31T09:38:01;12.50;;;2.30;;
34896;SDS011;43407;51.828;-2.298;2022-10-31T09:40:36;11.23;;;2.10;;
34896;SDS011;43407;51.828;-2.298;2022-10-31T09:52:20;11.00;;;2.72;;
34896;SDS011;43407;51.828;-2.298;2022-10-31T09:54:52;7.75;;;1.77;;
34896;SDS011;43407;51.828;-2.298;2022-10-31T09:57:23;13.32;;;2.45;;
34896;SDS011;43407;51.828;-2.298;2022-10-31T09:59:52;9.45;;;2.03;;
34896;SDS011;43407;51.828;-2.298;2022-10-31T10:02:20;8.90;;;2.20;;
34896;SDS011;43407;51.828;-2.298;2022-10-31T10:05:09;10.52;;;2.00;;
34896;SDS011;43407;51.828;-2.298;2022-10-31T10:08:01;14.15;;;2.70;;
34896;SDS011;43407;51.828;-2.298;2022-10-31T10:24:43;9.40;;;2.13;;
34896;SDS011;43407;51.828;-2.298;2022-10-31T10:27:21;8.65;;;2.20;;
34896;SDS011;43407;51.828;-2.298;2022-10-31T10:37:45;8.45;;;1.95;;
34896;SDS011;43407;51.828;-2.298;2022-10-31T10:40:21;6.40;;;2.10;;
34896;SDS011;43407;51.828;-2.298;2022-10-31T10:49:02;9.82;;;2.20;;
34896;SDS011;43407;51.828;-2.298;2022-10-31T10:59:42;13.95;;;1.92;;
34896;SDS011;43407;51.828;-2.298;2022-10-31T11:05:13;14.45;;;2.33;;
34896;SDS011;43407;51.828;-2.298;2022-10-31T11:07:59;9.63;;;2.03;;
34896;SDS011;43407;51.828;-2.298;2022-10-31T11:10:25;12.23;;;2.72;;
34896;SDS011;43407;51.828;-2.298;2022-10-31T11:12:58;9.57;;;2.00;;
34896;SDS011;43407;51.828;-2.298;2022-10-31T11:15:24;9.30;;;1.95;;
34896;SDS011;43407;51.828;-2.298;2022-10-31T11:17:59;6.57;;;1.45;;
34896;SDS011;43407;51.828;-2.298;2022-10-31T11:20:37;11.38;;;2.58;;
34896;SDS011;43407;51.828;-2.298;2022-10-31T11:23:18;12.57;;;2.35;;
34896;SDS011;43407;51.828;-2.298;2022-10-31T11:25:51;8.75;;;1.95;;
34896;SDS011;43407;51.828;-2.298;2022-10-31T11:28:24;9.05;;;2.20;;
34896;SDS011;43407;51.828;-2.298;2022-10-31T11:31:11;10.05;;;2.20;;
34896;SDS011;43407;51.828;-2.298;2022-10-31T11:38:47;8.38;;;1.85;;
34896;SDS011;43407;51.828;-2.298;2022-10-31T11:41:17;7.75;;;1.90;;
34896;SDS011;43407;51.828;-2.298;2022-10-31T11:43:54;3.08;;;1.05;;
34896;SDS011;43407;51.828;-2.298;2022-10-31T11:48:55;7.10;;;1.85;;
34896;SDS011;43407;51.828;-2.298;2022-10-31T11:51:31;7.55;;;1.90;;
34896;SDS011;43407;51.828;-2.298;2022-10-31T11:54:02;5.85;;;1.80;;
34896;SDS011;43407;51.828;-2.298;2022-10-31T11:56:41;7.20;;;1.60;;
34896;SDS011;43407;51.828;-2.298;2022-10-31T11:59:28;7.10;;;1.48;;
34896;SDS011;43407;51.828;-2.298;2022-10-31T12:01:56;7.43;;;1.63;;
34896;SDS011;43407;51.828;-2.298;2022-10-31T12:04:41;5.88;;;1.52;;
34896;SDS011;43407;51.828;-2.298;2022-10-31T12:07:09;3.40;;;1.25;;
34896;SDS011;43407;51.828;-2.298;2022-10-31T12:09:35;6.43;;;1.42;;
34896;SDS011;43407;51.828;-2.298;2022-10-31T12:23:19;5.07;;;1.92;;
34896;SDS011;43407;51.828;-2.298;2022-10-31T12:26:00;7.32;;;1.67;;
34896;SDS011;43407;51.828;-2.298;2022-10-31T12:37:31;11.68;;;1.75;;
34896;SDS011;43407;51.828;-2.298;2022-10-31T12:48:24;6.65;;;1.80;;
34896;SDS011;43407;51.828;-2.298;2022-10-31T12:56:32;8.88;;;1.85;;
34896;SDS011;43407;51.828;-2.298;2022-10-31T13:01:55;4.93;;;1.50;;
34896;SDS011;43407;51.828;-2.298;2022-10-31T13:04:37;6.32;;;1.48;;
34896;SDS011;43407;51.828;-2.298;2022-10-31T13:07:05;8.02;;;1.60;;
34896;SDS011;43407;51.828;-2.298;2022-10-31T13:09:44;5.53;;;1.50;;
34896;SDS011;43407;51.828;-2.298;2022-10-31T13:12:17;4.53;;;1.30;;
34896;SDS011;43407;51.828;-2.298;2022-10-31T13:14:52;5.45;;;1.58;;
34896;SDS011;43407;51.828;-2.298;2022-10-31T13:17:22;4.82;;;1.33;;
34896;SDS011;43407;51.828;-2.298;2022-10-31T13:22:53;9.07;;;1.50;;
34896;SDS011;43407;51.828;-2.298;2022-10-31T13:25:24;6.10;;;1.45;;
34896;SDS011;43407;51.828;-2.298;2022-10-31T13:28:00;6.53;;;1.80;;
34896;SDS011;43407;51.828;-2.298;2022-10-31T13:30:36;7.47;;;1.75;;
34896;SDS011;43407;51.828;-2.298;2022-10-31T13:35:55;5.78;;;2.03;;
34896;SDS011;43407;51.828;-2.298;2022-10-31T13:46:41;6.53;;;1.75;;
34896;SDS011;43407;51.828;-2.298;2022-10-31T13:54:34;8.52;;;1.70;;
34896;SDS011;43407;51.828;-2.298;2022-10-31T13:57:01;5.80;;;1.55;;
34896;SDS011;43407;51.828;-2.298;2022-10-31T13:59:31;3.67;;;1.38;;
34896;SDS011;43407;51.828;-2.298;2022-10-31T14:02:01;5.53;;;1.50;;
34896;SDS011;43407;51.828;-2.298;2022-10-31T14:04:29;5.88;;;1.60;;
34896;SDS011;43407;51.828;-2.298;2022-10-31T14:12:06;2.88;;;1.35;;
34896;SDS011;43407;51.828;-2.298;2022-10-31T14:14:35;4.72;;;1.40;;
34896;SDS011;43407;51.828;-2.298;2022-10-31T14:17:12;2.45;;;1.20;;
34896;SDS011;43407;51.828;-2.298;2022-10-31T14:19:42;3.92;;;1.48;;
34896;SDS011;43407;51.828;-2.298;2022-10-31T14:22:19;2.97;;;1.40;;
34896;SDS011;43407;51.828;-2.298;2022-10-31T14:24:47;5.35;;;1.27;;
34896;SDS011;43407;51.828;-2.298;2022-10-31T14:29:45;2.90;;;1.13;;
34896;SDS011;43407;51.828;-2.298;2022-10-31T14:34:41;5.85;;;1.58;;
34896;SDS011;43407;51.828;-2.298;2022-10-31T14:42:31;4.70;;;1.65;;
34896;SDS011;43407;51.828;-2.298;2022-10-31T14:45:17;5.53;;;1.80;;
34896;SDS011;43407;51.828;-2.298;2022-10-31T14:48:00;6.10;;;2.17;;
34896;SDS011;43407;51.828;-2.298;2022-10-31T14:53:08;2.65;;;1.25;;
34896;SDS011;43407;51.828;-2.298;2022-10-31T14:55:57;7.70;;;1.80;;
34896;SDS011;43407;51.828;-2.298;2022-10-31T14:58:24;3.25;;;1.30;;
34896;SDS011;43407;51.828;-2.298;2022-10-31T15:01:05;7.72;;;1.90;;
34896;SDS011;43407;51.828;-2.298;2022-10-31T15:03:36;3.83;;;1.50;;
34896;SDS011;43407;51.828;-2.298;2022-10-31T15:09:00;4.38;;;1.60;;
34896;SDS011;43407;51.828;-2.298;2022-10-31T15:11:28;4.55;;;1.60;;
34896;SDS011;43407;51.828;-2.298;2022-10-31T15:14:05;7.50;;;2.13;;
34896;SDS011;43407;51.828;-2.298;2022-10-31T15:16:48;6.47;;;1.52;;
34896;SDS011;43407;51.828;-2.298;2022-10-31T15:19:25;10.40;;;1.95;;
34896;SDS011;43407;51.828;-2.298;2022-10-31T15:21:55;5.68;;;1.70;;
34896;SDS011;43407;51.828;-2.298;2022-10-31T15:24:34;5.07;;;1.70;;
34896;SDS011;43407;51.828;-2.298;2022-10-31T15:27:01;3.33;;;1.55;;
34896;SDS011;43407;51.828;-2.298;2022-10-31T15:29:32;3.47;;;1.50;;
34896;SDS011;43407;51.828;-2.298;2022-10-31T15:32:01;4.32;;;1.70;;
34896;SDS011;43407;51.828;-2.298;2022-10-31T15:34:45;7.93;;;1.52;;
34896;SDS011;43407;51.828;-2.298;2022-10-31T15:37:17;4.97;;;1.45;;
34896;SDS011;43407;51.828;-2.298;2022-10-31T15:39:47;4.22;;;1.30;;
34896;SDS011;43407;51.828;-2.298;2022-10-31T15:47:35;3.78;;;1.60;;
34896;SDS011;43407;51.828;-2.298;2022-10-31T15:50:04;6.28;;;1.50;;
34896;SDS011;43407;51.828;-2.298;2022-10-31T15:52:38;3.90;;;1.40;;
34896;SDS011;43407;51.828;-2.298;2022-10-31T15:57:39;2.33;;;1.20;;
34896;SDS011;43407;51.828;-2.298;2022-10-31T16:05:34;4.10;;;1.27;;
34896;SDS011;43407;51.828;-2.298;2022-10-31T16:08:04;4.85;;;1.63;;
34896;SDS011;43407;51.828;-2.298;2022-10-31T16:10:32;3.65;;;1.40;;
34896;SDS011;43407;51.828;-2.298;2022-10-31T16:13:01;4.15;;;1.45;;
34896;SDS011;43407;51.828;-2.298;2022-10-31T16:15:28;5.18;;;1.92;;
34896;SDS011;43407;51.828;-2.298;2022-10-31T16:17:54;6.45;;;1.55;;
34896;SDS011;43407;51.828;-2.298;2022-10-31T16:20:27;3.92;;;1.20;;
34896;SDS011;43407;51.828;-2.298;2022-10-31T16:22:59;4.25;;;1.35;;
34896;SDS011;43407;51.828;-2.298;2022-10-31T16:25:36;2.50;;;1.13;;
34896;SDS011;43407;51.828;-2.298;2022-10-31T16:28:12;2.08;;;1.30;;
34896;SDS011;43407;51.828;-2.298;2022-10-31T16:30:55;2.58;;;1.23;;
34896;SDS011;43407;51.828;-2.298;2022-10-31T16:33:32;4.68;;;1.60;;
34896;SDS011;43407;51.828;-2.298;2022-10-31T16:36:28;3.97;;;1.70;;
34896;SDS011;43407;51.828;-2.298;2022-10-31T16:38:53;3.10;;;1.30;;
34896;SDS011;43407;51.828;-2.298;2022-10-31T16:41:19;3.17;;;1.67;;
34896;SDS011;43407;51.828;-2.298;2022-10-31T16:43:44;2.83;;;1.38;;
34896;SDS011;43407;51.828;-2.298;2022-10-31T16:46:28;3.95;;;1.45;;
34896;SDS011;43407;51.828;-2.298;2022-10-31T16:48:56;3.35;;;1.50;;
34896;SDS011;43407;51.828;-2.298;2022-10-31T16:51:24;3.38;;;1.20;;
34896;SDS011;43407;51.828;-2.298;2022-10-31T16:53:52;4.72;;;1.50;;
34896;SDS011;43407;51.828;-2.298;2022-10-31T16:56:22;3.90;;;1.40;;
34896;SDS011;43407;51.828;-2.298;2022-10-31T16:58:51;2.13;;;1.20;;
34896;SDS011;43407;51.828;-2.298;2022-10-31T17:01:17;3.72;;;1.77;;
34896;SDS011;43407;51.828;-2.298;2022-10-31T17:03:42;3.05;;;1.38;;
34896;SDS011;43407;51.828;-2.298;2022-10-31T17:06:10;2.95;;;1.42;;
34896;SDS011;43407;51.828;-2.298;2022-10-31T17:08:39;4.65;;;1.40;;
34896;SDS011;43407;51.828;-2.298;2022-10-31T17:11:04;3.90;;;2.00;;
34896;SDS011;43407;51.828;-2.298;2022-10-31T17:13:36;4.13;;;1.70;;
34896;SDS011;43407;51.828;-2.298;2022-10-31T17:16:21;3.55;;;1.60;;
34896;SDS011;43407;51.828;-2.298;2022-10-31T17:18:47;2.05;;;1.70;;
34896;SDS011;43407;51.828;-2.298;2022-10-31T17:21:20;3.90;;;1.70;;
34896;SDS011;43407;51.828;-2.298;2022-10-31T17:23:52;2.63;;;1.20;;
34896;SDS011;43407;51.828;-2.298;2022-10-31T17:26:21;3.50;;;1.60;;
34896;SDS011;43407;51.828;-2.298;2022-10-31T17:28:49;2.88;;;1.70;;
34896;SDS011;43407;51.828;-2.298;2022-10-31T17:31:22;2.60;;;1.38;;
34896;SDS011;43407;51.828;-2.298;2022-10-31T17:34:00;4.85;;;1.60;;
34896;SDS011;43407;51.828;-2.298;2022-10-31T17:36:27;3.20;;;1.38;;
34896;SDS011;43407;51.828;-2.298;2022-10-31T17:38:52;4.22;;;1.58;;
34896;SDS011;43407;51.828;-2.298;2022-10-31T17:41:18;5.78;;;1.73;;
34896;SDS011;43407;51.828;-2.298;2022-10-31T17:43:46;2.92;;;1.77;;
34896;SDS011;43407;51.828;-2.298;2022-10-31T17:46:15;3.05;;;1.48;;
34896;SDS011;43407;51.828;-2.298;2022-10-31T17:48:43;3.63;;;1.80;;
34896;SDS011;43407;51.828;-2.298;2022-10-31T17:51:11;2.58;;;1.40;;
34896;SDS011;43407;51.828;-2.298;2022-10-31T17:53:39;4.22;;;2.05;;
34896;SDS011;43407;51.828;-2.298;2022-10-31T17:56:07;3.08;;;1.65;;
34896;SDS011;43407;51.828;-2.298;2022-10-31T17:58:34;4.22;;;1.95;;
34896;SDS011;43407;51.828;-2.298;2022-10-31T18:01:05;5.90;;;2.22;;
34896;SDS011;43407;51.828;-2.298;2022-10-31T18:03:36;3.45;;;2.10;;